sensor_id;sensor_type;location;lat;lon;timestamp;P1;durP1;ratioP1;P2;durP2;ratioP2
76548;SDS011;65391;52.068;4.542;2024-01-11T00:00:34;18.7;;;9.1;;
76548;SDS011;65391;52.068;4.542;2024-01-11T00:02:59;20.1;;;8.6;;
76548;SDS011;65391;52.068;4.542;2024-01-11T00:05:24;20.1;;;8.6;;
76548;SDS011;65391;52.068;4.542;2024-01-11T00:07:49;20.1;;;8.6;;
76548;SDS011;65391;52.068;4.542;2024-01-11T00:10:15;20.1;;;8.6;;
76548;SDS011;65391;52.068;4.542;2024-01-11T00:12:39;20.1;;;8.6;;
76548;SDS011;65391;52.068;4.542;2024-01-11T00:15:05;18.2;;;8.9;;
76548;SDS011;65391;52.068;4.542;2024-01-11T00:17:29;18.2;;;8.9;;
76548;SDS011;65391;52.068;4.542;2024-01-11T00:19:54;18.2;;;8.9;;
76548;SDS011;65391;52.068;4.542;2024-01-11T00:22:19;18.2;;;8.9;;
76548;SDS011;65391;52.068;4.542;2024-01-11T00:24:44;20.4;;;8.8;;
76548;SDS011;65391;52.068;4.542;2024-01-11T00:27:09;20.4;;;8.8;;
76548;SDS011;65391;52.068;4.542;2024-01-11T00:29:35;20.4;;;8.8;;
76548;SDS011;65391;52.068;4.542;2024-01-11T00:31:59;20.4;;;8.8;;
76548;SDS011;65391;52.068;4.542;2024-01-11T00:34:24;18;;;8.5;;
76548;SDS011;65391;52.068;4.542;2024-01-11T00:36:49;18;;;8.5;;
76548;SDS011;65391;52.068;4.542;2024-01-11T00:39:14;18;;;8.5;;
76548;SDS011;65391;52.068;4.542;2024-01-11T00:41:39;18;;;8.5;;
76548;SDS011;65391;52.068;4.542;2024-01-11T00:44:04;20.2;;;9;;
76548;SDS011;65391;52.068;4.542;2024-01-11T00:46:29;20.2;;;9;;
76548;SDS011;65391;52.068;4.542;2024-01-11T00:48:54;20.2;;;9;;
76548;SDS011;65391;52.068;4.542;2024-01-11T00:51:19;20.2;;;9;;
76548;SDS011;65391;52.068;4.542;2024-01-11T00:53:44;19.8;;;8.6;;
76548;SDS011;65391;52.068;4.542;2024-01-11T00:56:15;19.8;;;8.6;;
76548;SDS011;65391;52.068;4.542;2024-01-11T00:58:34;19.8;;;8.6;;
76548;SDS011;65391;52.068;4.542;2024-01-11T01:00:59;19.8;;;8.6;;
76548;SDS011;65391;52.068;4.542;2024-01-11T01:03:24;20.5;;;8.6;;
76548;SDS011;65391;52.068;4.542;2024-01-11T01:05:49;20.5;;;8.6;;
76548;SDS011;65391;52.068;4.542;2024-01-11T01:08:14;20.5;;;8.6;;
76548;SDS011;65391;52.068;4.542;2024-01-11T01:10:39;20.5;;;8.6;;
76548;SDS011;65391;52.068;4.542;2024-01-11T01:13:04;21.3;;;9.8;;
76548;SDS011;65391;52.068;4.542;2024-01-11T01:15:29;21.3;;;9.8;;
76548;SDS011;65391;52.068;4.542;2024-01-11T01:17:54;21.3;;;9.8;;
76548;SDS011;65391;52.068;4.542;2024-01-11T01:20:22;21.3;;;9.8;;
76548;SDS011;65391;52.068;4.542;2024-01-11T01:22:44;21.3;;;9.8;;
76548;SDS011;65391;52.068;4.542;2024-01-11T01:25:09;20.1;;;9;;
76548;SDS011;65391;52.068;4.542;2024-01-11T01:27:34;20.1;;;9;;
76548;SDS011;65391;52.068;4.542;2024-01-11T01:29:59;20.1;;;9;;
76548;SDS011;65391;52.068;4.542;2024-01-11T01:32:24;20.1;;;9;;
76548;SDS011;65391;52.068;4.542;2024-01-11T01:34:49;20.2;;;9.3;;
76548;SDS011;65391;52.068;4.542;2024-01-11T01:37:14;20.2;;;9.3;;
76548;SDS011;65391;52.068;4.542;2024-01-11T01:39:39;20.2;;;9.3;;
76548;SDS011;65391;52.068;4.542;2024-01-11T01:42:04;20.2;;;9.3;;
76548;SDS011;65391;52.068;4.542;2024-01-11T01:44:29;20.7;;;9.5;;
76548;SDS011;65391;52.068;4.542;2024-01-11T01:46:54;20.7;;;9.5;;
76548;SDS011;65391;52.068;4.542;2024-01-11T01:49:19;20.7;;;9.5;;
76548;SDS011;65391;52.068;4.542;2024-01-11T01:51:44;20.7;;;9.5;;
76548;SDS011;65391;52.068;4.542;2024-01-11T01:54:09;21;;;9.9;;
76548;SDS011;65391;52.068;4.542;2024-01-11T01:56:34;21;;;9.9;;
76548;SDS011;65391;52.068;4.542;2024-01-11T01:58:59;21;;;9.9;;
76548;SDS011;65391;52.068;4.542;2024-01-11T02:01:24;21;;;9.9;;
76548;SDS011;65391;52.068;4.542;2024-01-11T02:03:50;21;;;9.5;;
76548;SDS011;65391;52.068;4.542;2024-01-11T02:06:14;21;;;9.5;;
76548;SDS011;65391;52.068;4.542;2024-01-11T02:08:42;21;;;9.5;;
76548;SDS011;65391;52.068;4.542;2024-01-11T02:11:04;21;;;9.5;;
76548;SDS011;65391;52.068;4.542;2024-01-11T02:13:29;20.4;;;9.2;;
76548;SDS011;65391;52.068;4.542;2024-01-11T02:15:54;20.4;;;9.2;;
76548;SDS011;65391;52.068;4.542;2024-01-11T02:18:19;20.4;;;9.2;;
76548;SDS011;65391;52.068;4.542;2024-01-11T02:20:44;20.4;;;9.2;;
76548;SDS011;65391;52.068;4.542;2024-01-11T02:23:14;20.7;;;9.3;;
76548;SDS011;65391;52.068;4.542;2024-01-11T02:25:34;20.7;;;9.3;;
76548;SDS011;65391;52.068;4.542;2024-01-11T02:27:59;20.7;;;9.3;;
76548;SDS011;65391;52.068;4.542;2024-01-11T02:30:24;20.7;;;9.3;;
76548;SDS011;65391;52.068;4.542;2024-01-11T02:32:52;20.7;;;9.3;;
76548;SDS011;65391;52.068;4.542;2024-01-11T02:35:15;21.2;;;10.1;;
76548;SDS011;65391;52.068;4.542;2024-01-11T02:37:39;21.2;;;10.1;;
76548;SDS011;65391;52.068;4.542;2024-01-11T02:40:05;21.2;;;10.1;;
76548;SDS011;65391;52.068;4.542;2024-01-11T02:42:29;21.2;;;10.1;;
76548;SDS011;65391;52.068;4.542;2024-01-11T02:44:54;22.2;;;11;;
76548;SDS011;65391;52.068;4.542;2024-01-11T02:47:19;22.2;;;11;;
76548;SDS011;65391;52.068;4.542;2024-01-11T02:49:44;22.2;;;11;;
76548;SDS011;65391;52.068;4.542;2024-01-11T02:52:09;22.2;;;11;;
76548;SDS011;65391;52.068;4.542;2024-01-11T02:54:34;21.5;;;10.2;;
76548;SDS011;65391;52.068;4.542;2024-01-11T02:56:59;21.5;;;10.2;;
76548;SDS011;65391;52.068;4.542;2024-01-11T02:59:24;21.5;;;10.2;;
76548;SDS011;65391;52.068;4.542;2024-01-11T03:01:49;21.5;;;10.2;;
76548;SDS011;65391;52.068;4.542;2024-01-11T03:04:14;21.5;;;10.5;;
76548;SDS011;65391;52.068;4.542;2024-01-11T03:06:39;21.5;;;10.5;;
76548;SDS011;65391;52.068;4.542;2024-01-11T03:09:04;21.5;;;10.5;;
76548;SDS011;65391;52.068;4.542;2024-01-11T03:11:29;21.5;;;10.5;;
76548;SDS011;65391;52.068;4.542;2024-01-11T03:13:54;21.2;;;10.3;;
76548;SDS011;65391;52.068;4.542;2024-01-11T03:16:19;21.2;;;10.3;;
76548;SDS011;65391;52.068;4.542;2024-01-11T03:18:44;21.2;;;10.3;;
76548;SDS011;65391;52.068;4.542;2024-01-11T03:21:09;21.2;;;10.3;;
76548;SDS011;65391;52.068;4.542;2024-01-11T03:23:34;19.9;;;9.2;;
76548;SDS011;65391;52.068;4.542;2024-01-11T03:25:59;19.9;;;9.2;;
76548;SDS011;65391;52.068;4.542;2024-01-11T03:28:24;19.9;;;9.2;;
76548;SDS011;65391;52.068;4.542;2024-01-11T03:30:49;19.9;;;9.2;;
76548;SDS011;65391;52.068;4.542;2024-01-11T03:33:14;20.6;;;9.8;;
76548;SDS011;65391;52.068;4.542;2024-01-11T03:35:39;20.6;;;9.8;;
76548;SDS011;65391;52.068;4.542;2024-01-11T03:38:04;20.6;;;9.8;;
76548;SDS011;65391;52.068;4.542;2024-01-11T03:40:29;20.6;;;9.8;;
76548;SDS011;65391;52.068;4.542;2024-01-11T03:42:54;20.6;;;9.8;;
76548;SDS011;65391;52.068;4.542;2024-01-11T03:45:19;21.3;;;10.6;;
76548;SDS011;65391;52.068;4.542;2024-01-11T03:47:44;21.3;;;10.6;;
76548;SDS011;65391;52.068;4.542;2024-01-11T03:50:09;21.3;;;10.6;;
76548;SDS011;65391;52.068;4.542;2024-01-11T03:52:34;21.3;;;10.6;;
76548;SDS011;65391;52.068;4.542;2024-01-11T03:54:59;20.4;;;9.9;;
76548;SDS011;65391;52.068;4.542;2024-01-11T03:57:24;20.4;;;9.9;;
76548;SDS011;65391;52.068;4.542;2024-01-11T03:59:49;20.4;;;9.9;;
76548;SDS011;65391;52.068;4.542;2024-01-11T04:02:14;20.4;;;9.9;;
76548;SDS011;65391;52.068;4.542;2024-01-11T04:04:40;21.3;;;10.8;;
76548;SDS011;65391;52.068;4.542;2024-01-11T04:07:04;21.3;;;10.8;;
76548;SDS011;65391;52.068;4.542;2024-01-11T04:09:29;21.3;;;10.8;;
76548;SDS011;65391;52.068;4.542;2024-01-11T04:11:54;21.3;;;10.8;;
76548;SDS011;65391;52.068;4.542;2024-01-11T04:14:19;21.8;;;11.3;;
76548;SDS011;65391;52.068;4.542;2024-01-11T04:16:44;21.8;;;11.3;;
76548;SDS011;65391;52.068;4.542;2024-01-11T04:19:09;21.8;;;11.3;;
76548;SDS011;65391;52.068;4.542;2024-01-11T04:21:34;21.8;;;11.3;;
76548;SDS011;65391;52.068;4.542;2024-01-11T04:23:59;21.9;;;11.3;;
76548;SDS011;65391;52.068;4.542;2024-01-11T04:26:24;21.9;;;11.3;;
76548;SDS011;65391;52.068;4.542;2024-01-11T04:28:49;21.9;;;11.3;;
76548;SDS011;65391;52.068;4.542;2024-01-11T04:31:14;21.9;;;11.3;;
76548;SDS011;65391;52.068;4.542;2024-01-11T04:33:40;21.2;;;10.8;;
76548;SDS011;65391;52.068;4.542;2024-01-11T04:36:04;21.2;;;10.8;;
76548;SDS011;65391;52.068;4.542;2024-01-11T04:38:30;21.2;;;10.8;;
76548;SDS011;65391;52.068;4.542;2024-01-11T04:40:54;21.2;;;10.8;;
76548;SDS011;65391;52.068;4.542;2024-01-11T04:43:19;22.4;;;12.2;;
76548;SDS011;65391;52.068;4.542;2024-01-11T04:45:44;22.4;;;12.2;;
76548;SDS011;65391;52.068;4.542;2024-01-11T04:48:09;22.4;;;12.2;;
76548;SDS011;65391;52.068;4.542;2024-01-11T04:50:34;22.4;;;12.2;;
76548;SDS011;65391;52.068;4.542;2024-01-11T04:52:59;22.4;;;12.2;;
76548;SDS011;65391;52.068;4.542;2024-01-11T04:55:24;20.8;;;10.6;;
76548;SDS011;65391;52.068;4.542;2024-01-11T04:57:49;20.8;;;10.6;;
76548;SDS011;65391;52.068;4.542;2024-01-11T05:00:15;20.8;;;10.6;;
76548;SDS011;65391;52.068;4.542;2024-01-11T05:02:39;20.8;;;10.6;;
76548;SDS011;65391;52.068;4.542;2024-01-11T05:05:04;21.6;;;11.8;;
76548;SDS011;65391;52.068;4.542;2024-01-11T05:07:29;21.6;;;11.8;;
76548;SDS011;65391;52.068;4.542;2024-01-11T05:09:54;21.6;;;11.8;;
76548;SDS011;65391;52.068;4.542;2024-01-11T05:12:19;21.6;;;11.8;;
76548;SDS011;65391;52.068;4.542;2024-01-11T05:14:44;20.6;;;10.7;;
76548;SDS011;65391;52.068;4.542;2024-01-11T05:17:09;20.6;;;10.7;;
76548;SDS011;65391;52.068;4.542;2024-01-11T05:19:34;20.6;;;10.7;;
76548;SDS011;65391;52.068;4.542;2024-01-11T05:21:59;20.6;;;10.7;;
76548;SDS011;65391;52.068;4.542;2024-01-11T05:24:24;22.1;;;12.6;;
76548;SDS011;65391;52.068;4.542;2024-01-11T05:26:49;22.1;;;12.6;;
76548;SDS011;65391;52.068;4.542;2024-01-11T05:29:14;22.1;;;12.6;;
76548;SDS011;65391;52.068;4.542;2024-01-11T05:31:39;22.1;;;12.6;;
76548;SDS011;65391;52.068;4.542;2024-01-11T05:34:04;22.2;;;13.1;;
76548;SDS011;65391;52.068;4.542;2024-01-11T05:36:29;22.2;;;13.1;;
76548;SDS011;65391;52.068;4.542;2024-01-11T05:38:54;22.2;;;13.1;;
76548;SDS011;65391;52.068;4.542;2024-01-11T05:41:19;22.2;;;13.1;;
76548;SDS011;65391;52.068;4.542;2024-01-11T05:43:44;21.8;;;12.3;;
76548;SDS011;65391;52.068;4.542;2024-01-11T05:46:09;21.8;;;12.3;;
76548;SDS011;65391;52.068;4.542;2024-01-11T05:48:34;21.8;;;12.3;;
76548;SDS011;65391;52.068;4.542;2024-01-11T05:50:59;21.8;;;12.3;;
76548;SDS011;65391;52.068;4.542;2024-01-11T05:53:24;22.2;;;12.6;;
76548;SDS011;65391;52.068;4.542;2024-01-11T05:55:49;22.2;;;12.6;;
76548;SDS011;65391;52.068;4.542;2024-01-11T05:58:14;22.2;;;12.6;;
76548;SDS011;65391;52.068;4.542;2024-01-11T06:00:39;22.2;;;12.6;;
76548;SDS011;65391;52.068;4.542;2024-01-11T06:03:04;22.2;;;12.6;;
76548;SDS011;65391;52.068;4.542;2024-01-11T06:05:29;21.3;;;12.6;;
76548;SDS011;65391;52.068;4.542;2024-01-11T06:07:54;21.3;;;12.6;;
76548;SDS011;65391;52.068;4.542;2024-01-11T06:10:19;21.3;;;12.6;;
76548;SDS011;65391;52.068;4.542;2024-01-11T06:12:44;21.3;;;12.6;;
76548;SDS011;65391;52.068;4.542;2024-01-11T06:15:09;21.9;;;12.6;;
76548;SDS011;65391;52.068;4.542;2024-01-11T06:17:34;21.9;;;12.6;;
76548;SDS011;65391;52.068;4.542;2024-01-11T06:19:59;21.9;;;12.6;;
76548;SDS011;65391;52.068;4.542;2024-01-11T06:22:27;21.9;;;12.6;;
76548;SDS011;65391;52.068;4.542;2024-01-11T06:24:49;21.9;;;12.9;;
76548;SDS011;65391;52.068;4.542;2024-01-11T06:27:14;21.9;;;12.9;;
76548;SDS011;65391;52.068;4.542;2024-01-11T06:29:39;21.9;;;12.9;;
76548;SDS011;65391;52.068;4.542;2024-01-11T06:32:05;21.9;;;12.9;;
76548;SDS011;65391;52.068;4.542;2024-01-11T06:34:29;21.6;;;12.2;;
76548;SDS011;65391;52.068;4.542;2024-01-11T06:36:54;21.6;;;12.2;;
76548;SDS011;65391;52.068;4.542;2024-01-11T06:39:19;21.6;;;12.2;;
76548;SDS011;65391;52.068;4.542;2024-01-11T06:41:44;21.6;;;12.2;;
76548;SDS011;65391;52.068;4.542;2024-01-11T06:44:09;22;;;13.1;;
76548;SDS011;65391;52.068;4.542;2024-01-11T06:46:34;22;;;13.1;;
76548;SDS011;65391;52.068;4.542;2024-01-11T06:48:59;22;;;13.1;;
76548;SDS011;65391;52.068;4.542;2024-01-11T06:51:24;22;;;13.1;;
76548;SDS011;65391;52.068;4.542;2024-01-11T06:53:49;23.2;;;14.6;;
76548;SDS011;65391;52.068;4.542;2024-01-11T06:56:15;23.2;;;14.6;;
76548;SDS011;65391;52.068;4.542;2024-01-11T06:58:42;23.2;;;14.6;;
76548;SDS011;65391;52.068;4.542;2024-01-11T07:01:04;23.2;;;14.6;;
76548;SDS011;65391;52.068;4.542;2024-01-11T07:03:29;18.3;;;14.7;;
76548;SDS011;65391;52.068;4.542;2024-01-11T07:05:54;18.3;;;14.7;;
76548;SDS011;65391;52.068;4.542;2024-01-11T07:08:19;18.3;;;14.7;;
76548;SDS011;65391;52.068;4.542;2024-01-11T07:10:44;18.3;;;14.7;;
76548;SDS011;65391;52.068;4.542;2024-01-11T07:13:09;18.3;;;14.7;;
76548;SDS011;65391;52.068;4.542;2024-01-11T07:15:34;18;;;15.7;;
76548;SDS011;65391;52.068;4.542;2024-01-11T07:17:59;18;;;15.7;;
76548;SDS011;65391;52.068;4.542;2024-01-11T07:20:24;18;;;15.7;;
76548;SDS011;65391;52.068;4.542;2024-01-11T07:22:49;18;;;15.7;;
76548;SDS011;65391;52.068;4.542;2024-01-11T07:25:14;23.2;;;15.8;;
76548;SDS011;65391;52.068;4.542;2024-01-11T07:27:39;23.2;;;15.8;;
76548;SDS011;65391;52.068;4.542;2024-01-11T07:30:05;23.2;;;15.8;;
76548;SDS011;65391;52.068;4.542;2024-01-11T07:32:29;23.2;;;15.8;;
76548;SDS011;65391;52.068;4.542;2024-01-11T07:34:54;22.8;;;15;;
76548;SDS011;65391;52.068;4.542;2024-01-11T07:37:19;22.8;;;15;;
76548;SDS011;65391;52.068;4.542;2024-01-11T07:39:44;22.8;;;15;;
76548;SDS011;65391;52.068;4.542;2024-01-11T07:42:09;22.8;;;15;;
76548;SDS011;65391;52.068;4.542;2024-01-11T07:44:34;17.9;;;15.7;;
76548;SDS011;65391;52.068;4.542;2024-01-11T07:46:59;17.9;;;15.7;;
76548;SDS011;65391;52.068;4.542;2024-01-11T07:49:24;17.9;;;15.7;;
76548;SDS011;65391;52.068;4.542;2024-01-11T07:51:49;17.9;;;15.7;;
76548;SDS011;65391;52.068;4.542;2024-01-11T07:54:14;19.1;;;15.8;;
76548;SDS011;65391;52.068;4.542;2024-01-11T07:56:39;19.1;;;15.8;;
76548;SDS011;65391;52.068;4.542;2024-01-11T07:59:04;19.1;;;15.8;;
76548;SDS011;65391;52.068;4.542;2024-01-11T08:01:29;19.1;;;15.8;;
76548;SDS011;65391;52.068;4.542;2024-01-11T08:03:54;19.6;;;15.3;;
76548;SDS011;65391;52.068;4.542;2024-01-11T08:06:19;19.6;;;15.3;;
76548;SDS011;65391;52.068;4.542;2024-01-11T08:08:44;19.6;;;15.3;;
76548;SDS011;65391;52.068;4.542;2024-01-11T08:11:09;19.6;;;15.3;;
76548;SDS011;65391;52.068;4.542;2024-01-11T08:13:34;19.6;;;15.3;;
76548;SDS011;65391;52.068;4.542;2024-01-11T08:16:00;18.8;;;15.3;;
76548;SDS011;65391;52.068;4.542;2024-01-11T08:18:24;18.8;;;15.3;;
76548;SDS011;65391;52.068;4.542;2024-01-11T08:20:49;18.8;;;15.3;;
76548;SDS011;65391;52.068;4.542;2024-01-11T08:23:14;18.8;;;15.3;;
76548;SDS011;65391;52.068;4.542;2024-01-11T08:25:39;18.4;;;16.2;;
76548;SDS011;65391;52.068;4.542;2024-01-11T08:28:05;18.4;;;16.2;;
76548;SDS011;65391;52.068;4.542;2024-01-11T08:30:29;18.4;;;16.2;;
76548;SDS011;65391;52.068;4.542;2024-01-11T08:32:54;18.4;;;16.2;;
76548;SDS011;65391;52.068;4.542;2024-01-11T08:35:19;21.1;;;18.1;;
76548;SDS011;65391;52.068;4.542;2024-01-11T08:37:44;21.1;;;18.1;;
76548;SDS011;65391;52.068;4.542;2024-01-11T08:40:10;21.1;;;18.1;;
76548;SDS011;65391;52.068;4.542;2024-01-11T08:42:34;21.1;;;18.1;;
76548;SDS011;65391;52.068;4.542;2024-01-11T08:44:59;29;;;21.8;;
76548;SDS011;65391;52.068;4.542;2024-01-11T08:47:24;29;;;21.8;;
76548;SDS011;65391;52.068;4.542;2024-01-11T08:49:49;29;;;21.8;;
76548;SDS011;65391;52.068;4.542;2024-01-11T08:52:14;29;;;21.8;;
76548;SDS011;65391;52.068;4.542;2024-01-11T08:54:39;26.6;;;22.1;;
76548;SDS011;65391;52.068;4.542;2024-01-11T08:57:04;26.6;;;22.1;;
76548;SDS011;65391;52.068;4.542;2024-01-11T08:59:29;26.6;;;22.1;;
76548;SDS011;65391;52.068;4.542;2024-01-11T09:01:54;26.6;;;22.1;;
76548;SDS011;65391;52.068;4.542;2024-01-11T09:04:19;24.4;;;17.9;;
76548;SDS011;65391;52.068;4.542;2024-01-11T09:06:44;24.4;;;17.9;;
76548;SDS011;65391;52.068;4.542;2024-01-11T09:09:10;24.4;;;17.9;;
76548;SDS011;65391;52.068;4.542;2024-01-11T09:11:34;24.4;;;17.9;;
76548;SDS011;65391;52.068;4.542;2024-01-11T09:13:59;18.9;;;17.2;;
76548;SDS011;65391;52.068;4.542;2024-01-11T09:16:27;18.9;;;17.2;;
76548;SDS011;65391;52.068;4.542;2024-01-11T09:18:49;18.9;;;17.2;;
76548;SDS011;65391;52.068;4.542;2024-01-11T09:21:14;18.9;;;17.2;;
76548;SDS011;65391;52.068;4.542;2024-01-11T09:23:39;18.9;;;17.2;;
76548;SDS011;65391;52.068;4.542;2024-01-11T09:26:04;25;;;17.7;;
76548;SDS011;65391;52.068;4.542;2024-01-11T09:28:29;25;;;17.7;;
76548;SDS011;65391;52.068;4.542;2024-01-11T09:30:54;25;;;17.7;;
76548;SDS011;65391;52.068;4.542;2024-01-11T09:33:19;25;;;17.7;;
76548;SDS011;65391;52.068;4.542;2024-01-11T09:35:44;21.1;;;20;;
76548;SDS011;65391;52.068;4.542;2024-01-11T09:38:09;21.1;;;20;;
76548;SDS011;65391;52.068;4.542;2024-01-11T09:40:34;21.1;;;20;;
76548;SDS011;65391;52.068;4.542;2024-01-11T09:43:00;21.1;;;20;;
76548;SDS011;65391;52.068;4.542;2024-01-11T09:45:24;21.3;;;20.2;;
76548;SDS011;65391;52.068;4.542;2024-01-11T09:47:49;21.3;;;20.2;;
76548;SDS011;65391;52.068;4.542;2024-01-11T09:50:15;21.3;;;20.2;;
76548;SDS011;65391;52.068;4.542;2024-01-11T09:52:39;21.3;;;20.2;;
76548;SDS011;65391;52.068;4.542;2024-01-11T09:55:05;21.9;;;21.2;;
76548;SDS011;65391;52.068;4.542;2024-01-11T09:57:31;21.9;;;21.2;;
76548;SDS011;65391;52.068;4.542;2024-01-11T09:59:56;21.9;;;21.2;;
76548;SDS011;65391;52.068;4.542;2024-01-11T10:02:19;21.9;;;21.2;;
76548;SDS011;65391;52.068;4.542;2024-01-11T10:04:44;21.5;;;19.4;;
76548;SDS011;65391;52.068;4.542;2024-01-11T10:07:09;21.5;;;19.4;;
76548;SDS011;65391;52.068;4.542;2024-01-11T10:09:34;21.5;;;19.4;;
76548;SDS011;65391;52.068;4.542;2024-01-11T10:11:59;21.5;;;19.4;;
76548;SDS011;65391;52.068;4.542;2024-01-11T10:14:24;22.6;;;22.1;;
76548;SDS011;65391;52.068;4.542;2024-01-11T10:16:49;22.6;;;22.1;;
76548;SDS011;65391;52.068;4.542;2024-01-11T10:19:14;22.6;;;22.1;;
76548;SDS011;65391;52.068;4.542;2024-01-11T10:21:39;22.6;;;22.1;;
76548;SDS011;65391;52.068;4.542;2024-01-11T10:24:05;22;;;21.2;;
76548;SDS011;65391;52.068;4.542;2024-01-11T10:26:29;22;;;21.2;;
76548;SDS011;65391;52.068;4.542;2024-01-11T10:28:54;22;;;21.2;;
76548;SDS011;65391;52.068;4.542;2024-01-11T10:31:19;22;;;21.2;;
76548;SDS011;65391;52.068;4.542;2024-01-11T10:33:44;22;;;21.2;;
76548;SDS011;65391;52.068;4.542;2024-01-11T10:36:10;28.1;;;22.1;;
76548;SDS011;65391;52.068;4.542;2024-01-11T10:38:35;28.1;;;22.1;;
76548;SDS011;65391;52.068;4.542;2024-01-11T10:41:00;28.1;;;22.1;;
76548;SDS011;65391;52.068;4.542;2024-01-11T10:43:24;28.1;;;22.1;;
76548;SDS011;65391;52.068;4.542;2024-01-11T10:45:49;27.4;;;19.2;;
76548;SDS011;65391;52.068;4.542;2024-01-11T10:48:15;27.4;;;19.2;;
76548;SDS011;65391;52.068;4.542;2024-01-11T10:50:42;27.4;;;19.2;;
76548;SDS011;65391;52.068;4.542;2024-01-11T10:53:12;27.4;;;19.2;;
76548;SDS011;65391;52.068;4.542;2024-01-11T10:55:31;27.5;;;19.4;;
76548;SDS011;65391;52.068;4.542;2024-01-11T10:57:54;27.5;;;19.4;;
76548;SDS011;65391;52.068;4.542;2024-01-11T11:00:19;27.5;;;19.4;;
76548;SDS011;65391;52.068;4.542;2024-01-11T11:02:44;27.5;;;19.4;;
76548;SDS011;65391;52.068;4.542;2024-01-11T11:05:09;27.1;;;18.7;;
76548;SDS011;65391;52.068;4.542;2024-01-11T11:07:34;27.1;;;18.7;;
76548;SDS011;65391;52.068;4.542;2024-01-11T11:09:59;27.1;;;18.7;;
76548;SDS011;65391;52.068;4.542;2024-01-11T11:12:24;27.1;;;18.7;;
76548;SDS011;65391;52.068;4.542;2024-01-11T11:14:52;27.7;;;18.7;;
76548;SDS011;65391;52.068;4.542;2024-01-11T11:17:14;27.7;;;18.7;;
76548;SDS011;65391;52.068;4.542;2024-01-11T11:19:39;27.7;;;18.7;;
76548;SDS011;65391;52.068;4.542;2024-01-11T11:22:04;27.7;;;18.7;;
76548;SDS011;65391;52.068;4.542;2024-01-11T11:24:29;27.8;;;18.2;;
76548;SDS011;65391;52.068;4.542;2024-01-11T11:26:54;27.8;;;18.2;;
76548;SDS011;65391;52.068;4.542;2024-01-11T11:29:19;27.8;;;18.2;;
76548;SDS011;65391;52.068;4.542;2024-01-11T11:31:45;27.8;;;18.2;;
76548;SDS011;65391;52.068;4.542;2024-01-11T11:34:10;25.3;;;17;;
76548;SDS011;65391;52.068;4.542;2024-01-11T11:36:34;25.3;;;17;;
76548;SDS011;65391;52.068;4.542;2024-01-11T11:38:59;25.3;;;17;;
76548;SDS011;65391;52.068;4.542;2024-01-11T11:41:24;25.3;;;17;;
76548;SDS011;65391;52.068;4.542;2024-01-11T11:43:51;25.3;;;17;;
76548;SDS011;65391;52.068;4.542;2024-01-11T11:46:14;26.3;;;16.5;;
76548;SDS011;65391;52.068;4.542;2024-01-11T11:48:50;26.3;;;16.5;;
76548;SDS011;65391;52.068;4.542;2024-01-11T11:51:06;26.3;;;16.5;;
76548;SDS011;65391;52.068;4.542;2024-01-11T11:53:30;26.3;;;16.5;;
76548;SDS011;65391;52.068;4.542;2024-01-11T11:55:54;26.3;;;15.9;;
76548;SDS011;65391;52.068;4.542;2024-01-11T11:58:19;26.3;;;15.9;;
76548;SDS011;65391;52.068;4.542;2024-01-11T12:00:44;26.3;;;15.9;;
76548;SDS011;65391;52.068;4.542;2024-01-11T12:03:09;26.3;;;15.9;;
76548;SDS011;65391;52.068;4.542;2024-01-11T12:05:37;25.5;;;15.1;;
76548;SDS011;65391;52.068;4.542;2024-01-11T12:07:59;25.5;;;15.1;;
76548;SDS011;65391;52.068;4.542;2024-01-11T12:10:24;25.5;;;15.1;;
76548;SDS011;65391;52.068;4.542;2024-01-11T12:12:49;25.5;;;15.1;;
76548;SDS011;65391;52.068;4.542;2024-01-11T12:15:14;23.7;;;13;;
76548;SDS011;65391;52.068;4.542;2024-01-11T12:17:39;23.7;;;13;;
76548;SDS011;65391;52.068;4.542;2024-01-11T12:20:06;23.7;;;13;;
76548;SDS011;65391;52.068;4.542;2024-01-11T12:22:29;23.7;;;13;;
76548;SDS011;65391;52.068;4.542;2024-01-11T12:24:54;24.3;;;13.3;;
76548;SDS011;65391;52.068;4.542;2024-01-11T12:27:19;24.3;;;13.3;;
76548;SDS011;65391;52.068;4.542;2024-01-11T12:29:44;24.3;;;13.3;;
76548;SDS011;65391;52.068;4.542;2024-01-11T12:32:09;24.3;;;13.3;;
76548;SDS011;65391;52.068;4.542;2024-01-11T12:34:34;25.2;;;14;;
76548;SDS011;65391;52.068;4.542;2024-01-11T12:36:59;25.2;;;14;;
76548;SDS011;65391;52.068;4.542;2024-01-11T12:40:17;25.2;;;14;;
76548;SDS011;65391;52.068;4.542;2024-01-11T12:42:41;25.2;;;14;;
76548;SDS011;65391;52.068;4.542;2024-01-11T12:45:07;24.9;;;13.4;;
76548;SDS011;65391;52.068;4.542;2024-01-11T12:47:31;24.9;;;13.4;;
76548;SDS011;65391;52.068;4.542;2024-01-11T12:49:56;24.9;;;13.4;;
76548;SDS011;65391;52.068;4.542;2024-01-11T12:52:22;24.9;;;13.4;;
76548;SDS011;65391;52.068;4.542;2024-01-11T12:54:47;26.4;;;14.8;;
76548;SDS011;65391;52.068;4.542;2024-01-11T12:57:12;26.4;;;14.8;;
76548;SDS011;65391;52.068;4.542;2024-01-11T12:59:36;26.4;;;14.8;;
76548;SDS011;65391;52.068;4.542;2024-01-11T13:02:02;26.4;;;14.8;;
76548;SDS011;65391;52.068;4.542;2024-01-11T13:04:27;27.2;;;15.5;;
76548;SDS011;65391;52.068;4.542;2024-01-11T13:06:51;27.2;;;15.5;;
76548;SDS011;65391;52.068;4.542;2024-01-11T13:09:16;27.2;;;15.5;;
76548;SDS011;65391;52.068;4.542;2024-01-11T13:11:41;27.2;;;15.5;;
76548;SDS011;65391;52.068;4.542;2024-01-11T13:14:07;25.6;;;13.9;;
76548;SDS011;65391;52.068;4.542;2024-01-11T13:16:32;25.6;;;13.9;;
76548;SDS011;65391;52.068;4.542;2024-01-11T13:18:57;25.6;;;13.9;;
76548;SDS011;65391;52.068;4.542;2024-01-11T13:21:22;25.6;;;13.9;;
76548;SDS011;65391;52.068;4.542;2024-01-11T13:23:46;25.6;;;13.9;;
76548;SDS011;65391;52.068;4.542;2024-01-11T13:26:12;23.9;;;13;;
76548;SDS011;65391;52.068;4.542;2024-01-11T13:28:37;23.9;;;13;;
76548;SDS011;65391;52.068;4.542;2024-01-11T13:32:34;23.9;;;13;;
76548;SDS011;65391;52.068;4.542;2024-01-11T13:34:59;23.8;;;12.3;;
76548;SDS011;65391;52.068;4.542;2024-01-11T13:37:24;23.8;;;12.3;;
76548;SDS011;65391;52.068;4.542;2024-01-11T13:39:49;23.8;;;12.3;;
76548;SDS011;65391;52.068;4.542;2024-01-11T13:42:14;23.8;;;12.3;;
76548;SDS011;65391;52.068;4.542;2024-01-11T13:44:39;23.6;;;12.2;;
76548;SDS011;65391;52.068;4.542;2024-01-11T13:47:04;23.6;;;12.2;;
76548;SDS011;65391;52.068;4.542;2024-01-11T13:49:29;23.6;;;12.2;;
76548;SDS011;65391;52.068;4.542;2024-01-11T13:51:54;23.6;;;12.2;;
76548;SDS011;65391;52.068;4.542;2024-01-11T13:54:19;21.7;;;11.9;;
76548;SDS011;65391;52.068;4.542;2024-01-11T13:56:44;21.7;;;11.9;;
76548;SDS011;65391;52.068;4.542;2024-01-11T13:59:09;21.7;;;11.9;;
76548;SDS011;65391;52.068;4.542;2024-01-11T14:01:34;21.7;;;11.9;;
76548;SDS011;65391;52.068;4.542;2024-01-11T14:03:59;21.7;;;11.9;;
76548;SDS011;65391;52.068;4.542;2024-01-11T14:06:24;20.5;;;11.3;;
76548;SDS011;65391;52.068;4.542;2024-01-11T14:08:49;20.5;;;11.3;;
76548;SDS011;65391;52.068;4.542;2024-01-11T14:11:14;20.5;;;11.3;;
76548;SDS011;65391;52.068;4.542;2024-01-11T14:13:39;20.5;;;11.3;;
76548;SDS011;65391;52.068;4.542;2024-01-11T14:16:04;23.8;;;12.5;;
76548;SDS011;65391;52.068;4.542;2024-01-11T14:18:29;23.8;;;12.5;;
76548;SDS011;65391;52.068;4.542;2024-01-11T14:20:54;23.8;;;12.5;;
76548;SDS011;65391;52.068;4.542;2024-01-11T14:23:19;23.8;;;12.5;;
76548;SDS011;65391;52.068;4.542;2024-01-11T14:25:44;23.6;;;12.1;;
76548;SDS011;65391;52.068;4.542;2024-01-11T14:28:09;23.6;;;12.1;;
76548;SDS011;65391;52.068;4.542;2024-01-11T14:30:34;23.6;;;12.1;;
76548;SDS011;65391;52.068;4.542;2024-01-11T14:32:59;23.6;;;12.1;;
76548;SDS011;65391;52.068;4.542;2024-01-11T14:35:24;24.5;;;13.1;;
76548;SDS011;65391;52.068;4.542;2024-01-11T14:37:49;24.5;;;13.1;;
76548;SDS011;65391;52.068;4.542;2024-01-11T14:40:14;24.5;;;13.1;;
76548;SDS011;65391;52.068;4.542;2024-01-11T14:42:39;24.5;;;13.1;;